sensor_id;sensor_type;location;lat;lon;timestamp;P1;durP1;ratioP1;P2;durP2;ratioP2
34060;SDS011;20336;-33.424;-70.638;2024-01-16T00:01:16;8.18;;;1.20;;
34060;SDS011;20336;-33.424;-70.638;2024-01-16T00:03:43;5.45;;;1.17;;
34060;SDS011;20336;-33.424;-70.638;2024-01-16T00:06:10;9.32;;;1.20;;
34060;SDS011;20336;-33.424;-70.638;2024-01-16T00:08:37;8.05;;;1.20;;
34060;SDS011;20336;-33.424;-70.638;2024-01-16T00:11:05;9.20;;;1.20;;
34060;SDS011;20336;-33.424;-70.638;2024-01-16T00:13:32;6.07;;;1.05;;
34060;SDS011;20336;-33.424;-70.638;2024-01-16T00:16:01;5.50;;;1.10;;
34060;SDS011;20336;-33.424;-70.638;2024-01-16T00:18:29;7.57;;;1.08;;
34060;SDS011;20336;-33.424;-70.638;2024-01-16T00:20:56;5.70;;;1.10;;
34060;SDS011;20336;-33.424;-70.638;2024-01-16T00:23:23;2.70;;;0.90;;
34060;SDS011;20336;-33.424;-70.638;2024-01-16T00:25:50;8.07;;;0.98;;
34060;SDS011;20336;-33.424;-70.638;2024-01-16T00:28:17;4.82;;;1.17;;
34060;SDS011;20336;-33.424;-70.638;2024-01-16T00:30:45;7.45;;;1.10;;
34060;SDS011;20336;-33.424;-70.638;2024-01-16T00:33:12;3.05;;;0.90;;
34060;SDS011;20336;-33.424;-70.638;2024-01-16T00:35:39;2.83;;;0.90;;
34060;SDS011;20336;-33.424;-70.638;2024-01-16T00:38:06;4.68;;;1.00;;
34060;SDS011;20336;-33.424;-70.638;2024-01-16T00:40:33;4.97;;;1.20;;
34060;SDS011;20336;-33.424;-70.638;2024-01-16T00:43:00;6.50;;;0.80;;
34060;SDS011;20336;-33.424;-70.638;2024-01-16T00:45:27;5.65;;;1.00;;
34060;SDS011;20336;-33.424;-70.638;2024-01-16T00:47:54;5.32;;;1.02;;
34060;SDS011;20336;-33.424;-70.638;2024-01-16T00:50:21;5.00;;;0.90;;
34060;SDS011;20336;-33.424;-70.638;2024-01-16T00:52:49;5.50;;;1.00;;
34060;SDS011;20336;-33.424;-70.638;2024-01-16T00:55:16;2.65;;;1.00;;
34060;SDS011;20336;-33.424;-70.638;2024-01-16T00:57:43;4.82;;;1.20;;
34060;SDS011;20336;-33.424;-70.638;2024-01-16T01:00:10;6.13;;;0.70;;
34060;SDS011;20336;-33.424;-70.638;2024-01-16T01:02:38;6.55;;;0.80;;
34060;SDS011;20336;-33.424;-70.638;2024-01-16T01:05:06;2.38;;;1.10;;
34060;SDS011;20336;-33.424;-70.638;2024-01-16T01:07:34;6.13;;;1.00;;
34060;SDS011;20336;-33.424;-70.638;2024-01-16T01:10:00;7.72;;;1.10;;
34060;SDS011;20336;-33.424;-70.638;2024-01-16T01:12:28;11.98;;;1.27;;
34060;SDS011;20336;-33.424;-70.638;2024-01-16T01:14:55;5.95;;;1.00;;
34060;SDS011;20336;-33.424;-70.638;2024-01-16T01:17:22;10.25;;;1.08;;
34060;SDS011;20336;-33.424;-70.638;2024-01-16T01:19:49;4.80;;;0.73;;
34060;SDS011;20336;-33.424;-70.638;2024-01-16T01:22:16;5.00;;;0.77;;
34060;SDS011;20336;-33.424;-70.638;2024-01-16T01:24:43;4.43;;;0.90;;
34060;SDS011;20336;-33.424;-70.638;2024-01-16T01:27:10;4.90;;;0.90;;
34060;SDS011;20336;-33.424;-70.638;2024-01-16T01:29:37;4.28;;;1.10;;
34060;SDS011;20336;-33.424;-70.638;2024-01-16T01:32:04;4.53;;;0.95;;
34060;SDS011;20336;-33.424;-70.638;2024-01-16T01:34:31;4.32;;;1.20;;
34060;SDS011;20336;-33.424;-70.638;2024-01-16T01:36:57;4.03;;;1.15;;
34060;SDS011;20336;-33.424;-70.638;2024-01-16T01:39:25;4.85;;;1.10;;
34060;SDS011;20336;-33.424;-70.638;2024-01-16T01:41:52;5.55;;;1.00;;
34060;SDS011;20336;-33.424;-70.638;2024-01-16T01:44:19;3.33;;;0.60;;
34060;SDS011;20336;-33.424;-70.638;2024-01-16T01:46:46;3.88;;;0.80;;
34060;SDS011;20336;-33.424;-70.638;2024-01-16T01:49:13;2.03;;;0.65;;
34060;SDS011;20336;-33.424;-70.638;2024-01-16T01:51:40;1.88;;;0.70;;
34060;SDS011;20336;-33.424;-70.638;2024-01-16T01:54:08;2.85;;;0.80;;
34060;SDS011;20336;-33.424;-70.638;2024-01-16T01:56:36;7.47;;;0.90;;
34060;SDS011;20336;-33.424;-70.638;2024-01-16T01:59:03;3.22;;;1.20;;
34060;SDS011;20336;-33.424;-70.638;2024-01-16T02:01:32;3.17;;;0.82;;
34060;SDS011;20336;-33.424;-70.638;2024-01-16T02:04:00;5.65;;;1.02;;
34060;SDS011;20336;-33.424;-70.638;2024-01-16T02:06:28;6.75;;;1.67;;
34060;SDS011;20336;-33.424;-70.638;2024-01-16T02:08:55;3.95;;;0.90;;
34060;SDS011;20336;-33.424;-70.638;2024-01-16T02:11:22;4.50;;;1.02;;
34060;SDS011;20336;-33.424;-70.638;2024-01-16T02:13:49;3.60;;;0.90;;
34060;SDS011;20336;-33.424;-70.638;2024-01-16T02:16:17;3.17;;;1.23;;
34060;SDS011;20336;-33.424;-70.638;2024-01-16T02:18:45;5.85;;;1.10;;
34060;SDS011;20336;-33.424;-70.638;2024-01-16T02:21:12;4.05;;;1.17;;
34060;SDS011;20336;-33.424;-70.638;2024-01-16T02:23:42;5.00;;;1.13;;
34060;SDS011;20336;-33.424;-70.638;2024-01-16T02:26:09;7.00;;;1.17;;
34060;SDS011;20336;-33.424;-70.638;2024-01-16T02:28:36;6.15;;;1.08;;
34060;SDS011;20336;-33.424;-70.638;2024-01-16T02:31:03;5.70;;;1.20;;
34060;SDS011;20336;-33.424;-70.638;2024-01-16T02:33:30;4.28;;;1.25;;
34060;SDS011;20336;-33.424;-70.638;2024-01-16T02:35:57;5.35;;;1.00;;
34060;SDS011;20336;-33.424;-70.638;2024-01-16T02:38:24;5.38;;;1.25;;
34060;SDS011;20336;-33.424;-70.638;2024-01-16T02:40:51;5.93;;;1.30;;
34060;SDS011;20336;-33.424;-70.638;2024-01-16T02:43:18;7.40;;;1.30;;
34060;SDS011;20336;-33.424;-70.638;2024-01-16T02:45:45;8.52;;;1.63;;
34060;SDS011;20336;-33.424;-70.638;2024-01-16T02:48:12;4.88;;;1.15;;
34060;SDS011;20336;-33.424;-70.638;2024-01-16T02:50:39;5.70;;;1.50;;
34060;SDS011;20336;-33.424;-70.638;2024-01-16T02:53:06;4.40;;;1.30;;
34060;SDS011;20336;-33.424;-70.638;2024-01-16T02:55:33;7.80;;;1.45;;
34060;SDS011;20336;-33.424;-70.638;2024-01-16T02:57:59;4.72;;;1.45;;
34060;SDS011;20336;-33.424;-70.638;2024-01-16T03:00:28;4.38;;;1.48;;
34060;SDS011;20336;-33.424;-70.638;2024-01-16T03:02:55;4.25;;;1.60;;
34060;SDS011;20336;-33.424;-70.638;2024-01-16T03:05:22;7.00;;;1.40;;
34060;SDS011;20336;-33.424;-70.638;2024-01-16T03:07:49;7.90;;;1.35;;
34060;SDS011;20336;-33.424;-70.638;2024-01-16T03:10:16;11.70;;;1.35;;
34060;SDS011;20336;-33.424;-70.638;2024-01-16T03:12:43;6.75;;;1.30;;
34060;SDS011;20336;-33.424;-70.638;2024-01-16T03:15:10;6.10;;;1.42;;
34060;SDS011;20336;-33.424;-70.638;2024-01-16T03:17:37;6.43;;;1.23;;
34060;SDS011;20336;-33.424;-70.638;2024-01-16T03:20:04;3.95;;;1.45;;
34060;SDS011;20336;-33.424;-70.638;2024-01-16T03:22:32;3.83;;;1.40;;
34060;SDS011;20336;-33.424;-70.638;2024-01-16T03:24:59;8.38;;;1.60;;
34060;SDS011;20336;-33.424;-70.638;2024-01-16T03:27:28;6.63;;;1.60;;
34060;SDS011;20336;-33.424;-70.638;2024-01-16T03:29:55;10.27;;;1.33;;
34060;SDS011;20336;-33.424;-70.638;2024-01-16T03:32:22;4.95;;;1.60;;
34060;SDS011;20336;-33.424;-70.638;2024-01-16T03:34:49;4.43;;;1.50;;
34060;SDS011;20336;-33.424;-70.638;2024-01-16T03:37:16;7.45;;;1.60;;
34060;SDS011;20336;-33.424;-70.638;2024-01-16T03:39:43;7.80;;;1.58;;
34060;SDS011;20336;-33.424;-70.638;2024-01-16T03:42:10;6.07;;;1.65;;
34060;SDS011;20336;-33.424;-70.638;2024-01-16T03:44:39;6.30;;;1.60;;
34060;SDS011;20336;-33.424;-70.638;2024-01-16T03:47:06;5.13;;;2.10;;
34060;SDS011;20336;-33.424;-70.638;2024-01-16T03:49:34;7.40;;;2.33;;
34060;SDS011;20336;-33.424;-70.638;2024-01-16T03:52:01;7.15;;;2.17;;
34060;SDS011;20336;-33.424;-70.638;2024-01-16T03:54:28;4.70;;;1.20;;
34060;SDS011;20336;-33.424;-70.638;2024-01-16T03:56:55;4.97;;;1.67;;
34060;SDS011;20336;-33.424;-70.638;2024-01-16T03:59:22;7.70;;;2.50;;
34060;SDS011;20336;-33.424;-70.638;2024-01-16T04:01:49;3.78;;;1.23;;
34060;SDS011;20336;-33.424;-70.638;2024-01-16T04:04:16;9.18;;;1.52;;
34060;SDS011;20336;-33.424;-70.638;2024-01-16T04:06:43;3.42;;;1.30;;
34060;SDS011;20336;-33.424;-70.638;2024-01-16T04:09:10;3.97;;;1.50;;
34060;SDS011;20336;-33.424;-70.638;2024-01-16T04:11:37;4.07;;;1.30;;
34060;SDS011;20336;-33.424;-70.638;2024-01-16T04:14:04;7.22;;;1.83;;
34060;SDS011;20336;-33.424;-70.638;2024-01-16T04:16:32;4.38;;;1.50;;
34060;SDS011;20336;-33.424;-70.638;2024-01-16T04:18:58;7.60;;;1.77;;
34060;SDS011;20336;-33.424;-70.638;2024-01-16T04:21:25;3.10;;;1.25;;
34060;SDS011;20336;-33.424;-70.638;2024-01-16T04:23:52;7.28;;;1.90;;
34060;SDS011;20336;-33.424;-70.638;2024-01-16T04:26:19;5.30;;;1.75;;
34060;SDS011;20336;-33.424;-70.638;2024-01-16T04:28:47;4.68;;;1.60;;
34060;SDS011;20336;-33.424;-70.638;2024-01-16T04:31:14;5.05;;;1.60;;
34060;SDS011;20336;-33.424;-70.638;2024-01-16T04:33:43;6.38;;;1.80;;
34060;SDS011;20336;-33.424;-70.638;2024-01-16T04:36:09;13.40;;;2.13;;
34060;SDS011;20336;-33.424;-70.638;2024-01-16T04:38:36;8.27;;;1.77;;
34060;SDS011;20336;-33.424;-70.638;2024-01-16T04:41:03;6.57;;;1.83;;
34060;SDS011;20336;-33.424;-70.638;2024-01-16T04:43:30;7.53;;;1.80;;
34060;SDS011;20336;-33.424;-70.638;2024-01-16T04:45:57;7.38;;;1.40;;
34060;SDS011;20336;-33.424;-70.638;2024-01-16T04:48:24;4.88;;;1.58;;
34060;SDS011;20336;-33.424;-70.638;2024-01-16T04:50:52;7.95;;;1.90;;
34060;SDS011;20336;-33.424;-70.638;2024-01-16T04:53:19;10.10;;;1.90;;
34060;SDS011;20336;-33.424;-70.638;2024-01-16T04:55:47;7.00;;;2.00;;
34060;SDS011;20336;-33.424;-70.638;2024-01-16T04:58:14;6.68;;;1.55;;
34060;SDS011;20336;-33.424;-70.638;2024-01-16T05:00:40;7.10;;;1.45;;
34060;SDS011;20336;-33.424;-70.638;2024-01-16T05:03:07;5.68;;;1.92;;
34060;SDS011;20336;-33.424;-70.638;2024-01-16T05:05:34;3.40;;;1.33;;
34060;SDS011;20336;-33.424;-70.638;2024-01-16T05:08:01;5.55;;;1.52;;
34060;SDS011;20336;-33.424;-70.638;2024-01-16T05:10:28;5.88;;;1.35;;
34060;SDS011;20336;-33.424;-70.638;2024-01-16T05:12:56;4.82;;;1.60;;
34060;SDS011;20336;-33.424;-70.638;2024-01-16T05:15:23;4.63;;;1.23;;
34060;SDS011;20336;-33.424;-70.638;2024-01-16T05:17:50;3.58;;;1.35;;
34060;SDS011;20336;-33.424;-70.638;2024-01-16T05:20:17;4.72;;;1.52;;
34060;SDS011;20336;-33.424;-70.638;2024-01-16T05:22:44;3.70;;;1.17;;
34060;SDS011;20336;-33.424;-70.638;2024-01-16T05:25:11;4.30;;;1.10;;
34060;SDS011;20336;-33.424;-70.638;2024-01-16T05:27:38;12.00;;;1.70;;
34060;SDS011;20336;-33.424;-70.638;2024-01-16T05:30:05;4.20;;;1.30;;
34060;SDS011;20336;-33.424;-70.638;2024-01-16T05:32:33;5.80;;;1.48;;
34060;SDS011;20336;-33.424;-70.638;2024-01-16T05:35:00;6.35;;;1.30;;
34060;SDS011;20336;-33.424;-70.638;2024-01-16T05:37:27;8.05;;;1.33;;
34060;SDS011;20336;-33.424;-70.638;2024-01-16T05:39:55;5.80;;;1.40;;
34060;SDS011;20336;-33.424;-70.638;2024-01-16T05:42:23;4.55;;;1.30;;
34060;SDS011;20336;-33.424;-70.638;2024-01-16T05:44:50;3.13;;;1.30;;
34060;SDS011;20336;-33.424;-70.638;2024-01-16T05:47:18;6.60;;;1.58;;
34060;SDS011;20336;-33.424;-70.638;2024-01-16T05:49:45;7.30;;;1.77;;
34060;SDS011;20336;-33.424;-70.638;2024-01-16T05:52:12;9.07;;;1.50;;
34060;SDS011;20336;-33.424;-70.638;2024-01-16T05:54:49;6.22;;;1.45;;
34060;SDS011;20336;-33.424;-70.638;2024-01-16T05:57:16;7.05;;;1.67;;
34060;SDS011;20336;-33.424;-70.638;2024-01-16T05:59:44;10.40;;;1.80;;
34060;SDS011;20336;-33.424;-70.638;2024-01-16T06:02:11;4.10;;;1.73;;
34060;SDS011;20336;-33.424;-70.638;2024-01-16T06:04:38;9.80;;;1.42;;
34060;SDS011;20336;-33.424;-70.638;2024-01-16T06:07:05;6.93;;;1.35;;
34060;SDS011;20336;-33.424;-70.638;2024-01-16T06:09:41;7.90;;;1.65;;
34060;SDS011;20336;-33.424;-70.638;2024-01-16T06:12:08;5.30;;;1.30;;
34060;SDS011;20336;-33.424;-70.638;2024-01-16T06:14:35;6.43;;;1.38;;
34060;SDS011;20336;-33.424;-70.638;2024-01-16T06:17:02;4.63;;;1.65;;
34060;SDS011;20336;-33.424;-70.638;2024-01-16T06:22:16;8.30;;;2.00;;
34060;SDS011;20336;-33.424;-70.638;2024-01-16T06:24:43;5.80;;;1.50;;
34060;SDS011;20336;-33.424;-70.638;2024-01-16T06:27:10;6.50;;;1.43;;
34060;SDS011;20336;-33.424;-70.638;2024-01-16T06:29:57;5.20;;;1.40;;
34060;SDS011;20336;-33.424;-70.638;2024-01-16T06:32:24;7.23;;;1.40;;
34060;SDS011;20336;-33.424;-70.638;2024-01-16T06:34:51;5.33;;;1.23;;
34060;SDS011;20336;-33.424;-70.638;2024-01-16T06:37:18;5.87;;;1.40;;
34060;SDS011;20336;-33.424;-70.638;2024-01-16T06:39:46;6.60;;;1.73;;
34060;SDS011;20336;-33.424;-70.638;2024-01-16T06:45:01;4.47;;;1.50;;
34060;SDS011;20336;-33.424;-70.638;2024-01-16T06:47:29;8.57;;;1.90;;
34060;SDS011;20336;-33.424;-70.638;2024-01-16T06:49:56;4.10;;;1.40;;
34060;SDS011;20336;-33.424;-70.638;2024-01-16T06:52:23;6.93;;;1.53;;
34060;SDS011;20336;-33.424;-70.638;2024-01-16T06:57:35;5.07;;;1.40;;
34060;SDS011;20336;-33.424;-70.638;2024-01-16T07:00:03;9.23;;;1.50;;
34060;SDS011;20336;-33.424;-70.638;2024-01-16T07:02:32;5.50;;;1.20;;
34060;SDS011;20336;-33.424;-70.638;2024-01-16T07:04:59;4.50;;;1.60;;
34060;SDS011;20336;-33.424;-70.638;2024-01-16T07:07:26;4.20;;;1.60;;
34060;SDS011;20336;-33.424;-70.638;2024-01-16T07:09:53;3.03;;;1.33;;
34060;SDS011;20336;-33.424;-70.638;2024-01-16T07:12:21;7.57;;;1.50;;
34060;SDS011;20336;-33.424;-70.638;2024-01-16T07:14:48;6.37;;;1.37;;
34060;SDS011;20336;-33.424;-70.638;2024-01-16T07:17:16;7.83;;;1.50;;
34060;SDS011;20336;-33.424;-70.638;2024-01-16T07:19:43;9.57;;;1.80;;
34060;SDS011;20336;-33.424;-70.638;2024-01-16T07:22:10;6.97;;;1.80;;
34060;SDS011;20336;-33.424;-70.638;2024-01-16T07:24:37;4.80;;;1.50;;
34060;SDS011;20336;-33.424;-70.638;2024-01-16T07:27:04;8.50;;;2.07;;
34060;SDS011;20336;-33.424;-70.638;2024-01-16T07:29:31;6.37;;;1.70;;
34060;SDS011;20336;-33.424;-70.638;2024-01-16T07:31:58;10.57;;;1.93;;
34060;SDS011;20336;-33.424;-70.638;2024-01-16T07:34:25;6.67;;;1.80;;
34060;SDS011;20336;-33.424;-70.638;2024-01-16T07:36:52;5.70;;;2.00;;
34060;SDS011;20336;-33.424;-70.638;2024-01-16T07:39:20;8.80;;;1.87;;
34060;SDS011;20336;-33.424;-70.638;2024-01-16T07:41:48;8.90;;;2.33;;
34060;SDS011;20336;-33.424;-70.638;2024-01-16T07:44:15;13.80;;;2.53;;
34060;SDS011;20336;-33.424;-70.638;2024-01-16T07:46:42;6.77;;;2.27;;
34060;SDS011;20336;-33.424;-70.638;2024-01-16T07:49:09;6.67;;;2.30;;
34060;SDS011;20336;-33.424;-70.638;2024-01-16T07:51:36;6.60;;;2.33;;
34060;SDS011;20336;-33.424;-70.638;2024-01-16T07:54:08;9.70;;;2.70;;
34060;SDS011;20336;-33.424;-70.638;2024-01-16T07:56:35;10.03;;;2.27;;
34060;SDS011;20336;-33.424;-70.638;2024-01-16T07:59:03;10.30;;;2.47;;
34060;SDS011;20336;-33.424;-70.638;2024-01-16T08:01:30;7.73;;;2.23;;
34060;SDS011;20336;-33.424;-70.638;2024-01-16T08:03:58;11.40;;;2.37;;
34060;SDS011;20336;-33.424;-70.638;2024-01-16T08:06:25;6.90;;;2.23;;
34060;SDS011;20336;-33.424;-70.638;2024-01-16T08:08:53;9.87;;;2.40;;
34060;SDS011;20336;-33.424;-70.638;2024-01-16T08:11:20;10.30;;;2.60;;
34060;SDS011;20336;-33.424;-70.638;2024-01-16T08:13:47;8.33;;;2.80;;
34060;SDS011;20336;-33.424;-70.638;2024-01-16T08:16:14;9.23;;;2.80;;
34060;SDS011;20336;-33.424;-70.638;2024-01-16T08:18:41;6.73;;;2.33;;
34060;SDS011;20336;-33.424;-70.638;2024-01-16T08:21:08;6.53;;;2.37;;
34060;SDS011;20336;-33.424;-70.638;2024-01-16T08:23:35;8.03;;;2.50;;
34060;SDS011;20336;-33.424;-70.638;2024-01-16T08:26:02;9.07;;;2.70;;
34060;SDS011;20336;-33.424;-70.638;2024-01-16T08:28:29;6.57;;;2.63;;
34060;SDS011;20336;-33.424;-70.638;2024-01-16T08:30:56;9.03;;;2.47;;
34060;SDS011;20336;-33.424;-70.638;2024-01-16T08:33:24;10.67;;;2.30;;
34060;SDS011;20336;-33.424;-70.638;2024-01-16T08:35:51;11.00;;;2.10;;
34060;SDS011;20336;-33.424;-70.638;2024-01-16T08:38:18;7.70;;;2.20;;
34060;SDS011;20336;-33.424;-70.638;2024-01-16T08:40:45;8.00;;;1.97;;
34060;SDS011;20336;-33.424;-70.638;2024-01-16T08:43:12;8.23;;;2.30;;
34060;SDS011;20336;-33.424;-70.638;2024-01-16T08:45:39;12.27;;;2.30;;
34060;SDS011;20336;-33.424;-70.638;2024-01-16T08:48:06;7.40;;;1.90;;
34060;SDS011;20336;-33.424;-70.638;2024-01-16T08:50:33;6.43;;;1.80;;
34060;SDS011;20336;-33.424;-70.638;2024-01-16T08:53:00;12.43;;;2.40;;
34060;SDS011;20336;-33.424;-70.638;2024-01-16T08:55:27;8.33;;;1.90;;
34060;SDS011;20336;-33.424;-70.638;2024-01-16T08:57:54;6.73;;;2.30;;
34060;SDS011;20336;-33.424;-70.638;2024-01-16T09:00:21;6.03;;;1.90;;
34060;SDS011;20336;-33.424;-70.638;2024-01-16T09:02:48;19.83;;;3.23;;
34060;SDS011;20336;-33.424;-70.638;2024-01-16T09:05:15;7.80;;;2.60;;
34060;SDS011;20336;-33.424;-70.638;2024-01-16T09:07:42;11.90;;;2.10;;
34060;SDS011;20336;-33.424;-70.638;2024-01-16T09:10:09;12.23;;;2.50;;
34060;SDS011;20336;-33.424;-70.638;2024-01-16T09:12:36;7.33;;;2.30;;
34060;SDS011;20336;-33.424;-70.638;2024-01-16T09:15:03;37.20;;;4.60;;
34060;SDS011;20336;-33.424;-70.638;2024-01-16T09:17:30;12.77;;;2.30;;
34060;SDS011;20336;-33.424;-70.638;2024-01-16T09:19:57;10.20;;;2.47;;
34060;SDS011;20336;-33.424;-70.638;2024-01-16T09:22:24;5.53;;;1.93;;
34060;SDS011;20336;-33.424;-70.638;2024-01-16T09:24:51;11.70;;;2.40;;
34060;SDS011;20336;-33.424;-70.638;2024-01-16T09:27:18;11.73;;;2.63;;
34060;SDS011;20336;-33.424;-70.638;2024-01-16T09:29:45;8.40;;;2.70;;
34060;SDS011;20336;-33.424;-70.638;2024-01-16T09:32:12;8.40;;;3.60;;
34060;SDS011;20336;-33.424;-70.638;2024-01-16T09:34:39;8.80;;;3.87;;
34060;SDS011;20336;-33.424;-70.638;2024-01-16T09:37:06;17.33;;;3.97;;
34060;SDS011;20336;-33.424;-70.638;2024-01-16T09:39:33;14.70;;;4.37;;
34060;SDS011;20336;-33.424;-70.638;2024-01-16T09:42:03;11.90;;;4.33;;
34060;SDS011;20336;-33.424;-70.638;2024-01-16T09:44:30;12.03;;;4.00;;
34060;SDS011;20336;-33.424;-70.638;2024-01-16T09:46:57;13.40;;;4.23;;
34060;SDS011;20336;-33.424;-70.638;2024-01-16T09:49:24;12.57;;;4.57;;
34060;SDS011;20336;-33.424;-70.638;2024-01-16T09:51:51;14.33;;;4.13;;
34060;SDS011;20336;-33.424;-70.638;2024-01-16T09:54:18;14.33;;;4.10;;
34060;SDS011;20336;-33.424;-70.638;2024-01-16T09:56:45;18.17;;;4.27;;
34060;SDS011;20336;-33.424;-70.638;2024-01-16T09:59:15;16.97;;;4.40;;
34060;SDS011;20336;-33.424;-70.638;2024-01-16T10:01:46;14.63;;;3.57;;
34060;SDS011;20336;-33.424;-70.638;2024-01-16T10:04:15;13.50;;;4.13;;
34060;SDS011;20336;-33.424;-70.638;2024-01-16T10:06:44;10.07;;;3.67;;
34060;SDS011;20336;-33.424;-70.638;2024-01-16T10:09:12;9.40;;;3.70;;
34060;SDS011;20336;-33.424;-70.638;2024-01-16T10:11:40;14.63;;;4.30;;
34060;SDS011;20336;-33.424;-70.638;2024-01-16T10:14:07;12.13;;;3.90;;
34060;SDS011;20336;-33.424;-70.638;2024-01-16T10:19:19;17.40;;;4.47;;
34060;SDS011;20336;-33.424;-70.638;2024-01-16T10:21:46;12.37;;;4.07;;
34060;SDS011;20336;-33.424;-70.638;2024-01-16T10:24:13;12.27;;;3.63;;
34060;SDS011;20336;-33.424;-70.638;2024-01-16T10:26:40;11.17;;;3.00;;
34060;SDS011;20336;-33.424;-70.638;2024-01-16T10:29:07;11.63;;;3.30;;
34060;SDS011;20336;-33.424;-70.638;2024-01-16T10:31:34;15.17;;;4.23;;
34060;SDS011;20336;-33.424;-70.638;2024-01-16T10:34:09;9.97;;;3.40;;
34060;SDS011;20336;-33.424;-70.638;2024-01-16T10:36:47;21.13;;;4.70;;
34060;SDS011;20336;-33.424;-70.638;2024-01-16T10:39:14;16.93;;;4.23;;
34060;SDS011;20336;-33.424;-70.638;2024-01-16T10:41:45;11.97;;;3.80;;
34060;SDS011;20336;-33.424;-70.638;2024-01-16T10:44:21;17.33;;;4.13;;
34060;SDS011;20336;-33.424;-70.638;2024-01-16T10:46:48;16.10;;;4.17;;
34060;SDS011;20336;-33.424;-70.638;2024-01-16T10:49:15;23.67;;;4.40;;
34060;SDS011;20336;-33.424;-70.638;2024-01-16T10:51:43;15.13;;;4.67;;
34060;SDS011;20336;-33.424;-70.638;2024-01-16T10:54:12;11.67;;;3.40;;
34060;SDS011;20336;-33.424;-70.638;2024-01-16T10:56:45;13.03;;;3.93;;
34060;SDS011;20336;-33.424;-70.638;2024-01-16T10:59:21;10.20;;;4.17;;
34060;SDS011;20336;-33.424;-70.638;2024-01-16T11:01:52;15.30;;;3.83;;
34060;SDS011;20336;-33.424;-70.638;2024-01-16T11:04:20;15.27;;;4.00;;
34060;SDS011;20336;-33.424;-70.638;2024-01-16T11:06:47;11.90;;;3.90;;
34060;SDS011;20336;-33.424;-70.638;2024-01-16T11:09:18;13.27;;;4.40;;
34060;SDS011;20336;-33.424;-70.638;2024-01-16T11:11:46;12.43;;;4.50;;
34060;SDS011;20336;-33.424;-70.638;2024-01-16T11:14:13;16.57;;;4.33;;
34060;SDS011;20336;-33.424;-70.638;2024-01-16T11:16:40;14.70;;;3.80;;
34060;SDS011;20336;-33.424;-70.638;2024-01-16T11:19:08;16.30;;;3.90;;
34060;SDS011;20336;-33.424;-70.638;2024-01-16T11:21:38;19.53;;;4.03;;
34060;SDS011;20336;-33.424;-70.638;2024-01-16T11:24:06;10.90;;;4.70;;
34060;SDS011;20336;-33.424;-70.638;2024-01-16T11:26:33;16.90;;;4.93;;
34060;SDS011;20336;-33.424;-70.638;2024-01-16T11:31:50;17.73;;;4.30;;
34060;SDS011;20336;-33.424;-70.638;2024-01-16T11:34:37;16.47;;;4.50;;
34060;SDS011;20336;-33.424;-70.638;2024-01-16T11:37:05;19.53;;;4.50;;
34060;SDS011;20336;-33.424;-70.638;2024-01-16T11:39:34;15.27;;;5.20;;
34060;SDS011;20336;-33.424;-70.638;2024-01-16T11:42:01;22.67;;;5.70;;
34060;SDS011;20336;-33.424;-70.638;2024-01-16T11:47:04;14.40;;;5.67;;
34060;SDS011;20336;-33.424;-70.638;2024-01-16T11:49:31;15.70;;;5.50;;
34060;SDS011;20336;-33.424;-70.638;2024-01-16T11:51:58;20.93;;;7.00;;
34060;SDS011;20336;-33.424;-70.638;2024-01-16T11:54:26;15.75;;;6.25;;
34060;SDS011;20336;-33.424;-70.638;2024-01-16T12:01:53;15.77;;;6.63;;
34060;SDS011;20336;-33.424;-70.638;2024-01-16T12:04:22;18.10;;;6.63;;
34060;SDS011;20336;-33.424;-70.638;2024-01-16T12:06:58;21.77;;;6.70;;
34060;SDS011;20336;-33.424;-70.638;2024-01-16T12:09:28;18.00;;;7.05;;
34060;SDS011;20336;-33.424;-70.638;2024-01-16T12:12:02;22.33;;;6.68;;
34060;SDS011;20336;-33.424;-70.638;2024-01-16T12:14:29;19.30;;;6.10;;
34060;SDS011;20336;-33.424;-70.638;2024-01-16T12:17:09;21.67;;;6.65;;
34060;SDS011;20336;-33.424;-70.638;2024-01-16T12:19:36;26.52;;;4.88;;
34060;SDS011;20336;-33.424;-70.638;2024-01-16T12:22:08;17.73;;;4.50;;
34060;SDS011;20336;-33.424;-70.638;2024-01-16T12:24:38;12.30;;;3.80;;
34060;SDS011;20336;-33.424;-70.638;2024-01-16T12:27:05;10.65;;;3.20;;
34060;SDS011;20336;-33.424;-70.638;2024-01-16T12:29:34;10.40;;;3.20;;
34060;SDS011;20336;-33.424;-70.638;2024-01-16T12:32:08;20.88;;;4.93;;
34060;SDS011;20336;-33.424;-70.638;2024-01-16T12:34:35;16.08;;;4.90;;
34060;SDS011;20336;-33.424;-70.638;2024-01-16T12:37:11;13.73;;;3.95;;
34060;SDS011;20336;-33.424;-70.638;2024-01-16T12:39:38;10.63;;;4.28;;
34060;SDS011;20336;-33.424;-70.638;2024-01-16T12:42:07;12.93;;;4.63;;
34060;SDS011;20336;-33.424;-70.638;2024-01-16T12:44:38;21.88;;;5.00;;
34060;SDS011;20336;-33.424;-70.638;2024-01-16T12:47:05;14.18;;;5.25;;
34060;SDS011;20336;-33.424;-70.638;2024-01-16T12:49:41;15.35;;;4.30;;
34060;SDS011;20336;-33.424;-70.638;2024-01-16T12:52:17;16.80;;;4.30;;
34060;SDS011;20336;-33.424;-70.638;2024-01-16T12:54:46;17.15;;;5.30;;
34060;SDS011;20336;-33.424;-70.638;2024-01-16T12:57:17;13.20;;;5.10;;
34060;SDS011;20336;-33.424;-70.638;2024-01-16T12:59:45;16.48;;;4.53;;
34060;SDS011;20336;-33.424;-70.638;2024-01-16T13:02:23;17.05;;;5.47;;
34060;SDS011;20336;-33.424;-70.638;2024-01-16T13:04:57;15.43;;;5.80;;
34060;SDS011;20336;-33.424;-70.638;2024-01-16T13:07:24;27.40;;;5.60;;
34060;SDS011;20336;-33.424;-70.638;2024-01-16T13:10:08;22.33;;;6.88;;
34060;SDS011;20336;-33.424;-70.638;2024-01-16T13:12:37;16.00;;;6.05;;
34060;SDS011;20336;-33.424;-70.638;2024-01-16T13:15:04;12.98;;;5.38;;
34060;SDS011;20336;-33.424;-70.638;2024-01-16T13:17:32;19.75;;;5.38;;
34060;SDS011;20336;-33.424;-70.638;2024-01-16T13:20:00;13.82;;;4.80;;
34060;SDS011;20336;-33.424;-70.638;2024-01-16T13:22:27;23.75;;;5.38;;
34060;SDS011;20336;-33.424;-70.638;2024-01-16T13:24:54;12.02;;;5.05;;
34060;SDS011;20336;-33.424;-70.638;2024-01-16T13:27:23;15.38;;;4.97;;
34060;SDS011;20336;-33.424;-70.638;2024-01-16T13:29:52;17.08;;;3.75;;
34060;SDS011;20336;-33.424;-70.638;2024-01-16T13:32:19;14.95;;;4.78;;
34060;SDS011;20336;-33.424;-70.638;2024-01-16T13:34:46;22.05;;;5.38;;
34060;SDS011;20336;-33.424;-70.638;2024-01-16T13:37:19;13.13;;;4.30;;
34060;SDS011;20336;-33.424;-70.638;2024-01-16T13:39:47;14.38;;;3.75;;
34060;SDS011;20336;-33.424;-70.638;2024-01-16T13:42:14;16.92;;;4.35;;
34060;SDS011;20336;-33.424;-70.638;2024-01-16T13:44:44;22.80;;;4.57;;
34060;SDS011;20336;-33.424;-70.638;2024-01-16T13:47:11;14.20;;;4.07;;
34060;SDS011;20336;-33.424;-70.638;2024-01-16T13:49:38;13.90;;;4.10;;
34060;SDS011;20336;-33.424;-70.638;2024-01-16T13:55:01;19.90;;;3.00;;
34060;SDS011;20336;-33.424;-70.638;2024-01-16T13:57:33;12.75;;;3.10;;
34060;SDS011;20336;-33.424;-70.638;2024-01-16T14:00:04;19.45;;;5.38;;
34060;SDS011;20336;-33.424;-70.638;2024-01-16T14:02:32;17.50;;;3.30;;
34060;SDS011;20336;-33.424;-70.638;2024-01-16T14:05:04;13.73;;;3.35;;
34060;SDS011;20336;-33.424;-70.638;2024-01-16T14:07:31;14.45;;;3.25;;
34060;SDS011;20336;-33.424;-70.638;2024-01-16T14:09:58;15.70;;;2.80;;
34060;SDS011;20336;-33.424;-70.638;2024-01-16T14:12:25;6.32;;;2.13;;
34060;SDS011;20336;-33.424;-70.638;2024-01-16T14:14:52;9.50;;;2.03;;
34060;SDS011;20336;-33.424;-70.638;2024-01-16T14:17:19;8.68;;;2.20;;
34060;SDS011;20336;-33.424;-70.638;2024-01-16T14:19:46;11.10;;;2.25;;
34060;SDS011;20336;-33.424;-70.638;2024-01-16T14:22:13;15.82;;;2.38;;
34060;SDS011;20336;-33.424;-70.638;2024-01-16T14:24:40;17.55;;;2.53;;
34060;SDS011;20336;-33.424;-70.638;2024-01-16T14:30:03;7.70;;;1.77;;
34060;SDS011;20336;-33.424;-70.638;2024-01-16T14:32:31;8.88;;;1.88;;
34060;SDS011;20336;-33.424;-70.638;2024-01-16T14:34:58;8.73;;;2.40;;